sensor_id;sensor_type;location;lat;lon;timestamp;P1;durP1;ratioP1;P2;durP2;ratioP2
16179;SDS011;8196;49.428;10.906;2022-12-26T00:02:09;6.57;;;5.55;;
16179;SDS011;8196;49.428;10.906;2022-12-26T00:04:36;5.82;;;5.20;;
16179;SDS011;8196;49.428;10.906;2022-12-26T00:07:17;6.20;;;5.25;;
16179;SDS011;8196;49.428;10.906;2022-12-26T00:09:44;5.93;;;5.32;;
16179;SDS011;8196;49.428;10.906;2022-12-26T00:12:11;6.72;;;4.95;;
16179;SDS011;8196;49.428;10.906;2022-12-26T00:14:39;7.53;;;5.28;;
16179;SDS011;8196;49.428;10.906;2022-12-26T00:17:06;5.72;;;5.20;;
16179;SDS011;8196;49.428;10.906;2022-12-26T00:19:33;5.75;;;5.15;;
16179;SDS011;8196;49.428;10.906;2022-12-26T00:22:01;5.10;;;4.60;;
16179;SDS011;8196;49.428;10.906;2022-12-26T00:24:28;5.15;;;4.50;;
16179;SDS011;8196;49.428;10.906;2022-12-26T00:26:55;5.45;;;4.75;;
16179;SDS011;8196;49.428;10.906;2022-12-26T00:29:22;5.10;;;4.60;;
16179;SDS011;8196;49.428;10.906;2022-12-26T00:31:49;5.43;;;4.93;;
16179;SDS011;8196;49.428;10.906;2022-12-26T00:34:16;5.38;;;4.88;;
16179;SDS011;8196;49.428;10.906;2022-12-26T00:36:43;5.10;;;4.60;;
16179;SDS011;8196;49.428;10.906;2022-12-26T00:39:10;5.70;;;5.03;;
16179;SDS011;8196;49.428;10.906;2022-12-26T00:41:38;5.18;;;4.43;;
16179;SDS011;8196;49.428;10.906;2022-12-26T00:44:05;4.80;;;4.30;;
16179;SDS011;8196;49.428;10.906;2022-12-26T00:46:32;6.38;;;4.75;;
16179;SDS011;8196;49.428;10.906;2022-12-26T00:48:59;5.57;;;4.97;;
16179;SDS011;8196;49.428;10.906;2022-12-26T00:51:26;6.38;;;5.40;;
16179;SDS011;8196;49.428;10.906;2022-12-26T00:53:53;5.35;;;4.85;;
16179;SDS011;8196;49.428;10.906;2022-12-26T00:56:20;5.93;;;5.30;;
16179;SDS011;8196;49.428;10.906;2022-12-26T00:58:47;6.53;;;5.20;;
16179;SDS011;8196;49.428;10.906;2022-12-26T01:01:15;5.45;;;4.95;;
16179;SDS011;8196;49.428;10.906;2022-12-26T01:03:43;5.28;;;4.78;;
16179;SDS011;8196;49.428;10.906;2022-12-26T01:06:11;5.05;;;4.50;;
16179;SDS011;8196;49.428;10.906;2022-12-26T01:08:38;5.10;;;4.60;;
16179;SDS011;8196;49.428;10.906;2022-12-26T01:11:07;6.38;;;4.80;;
16179;SDS011;8196;49.428;10.906;2022-12-26T01:13:34;4.68;;;4.28;;
16179;SDS011;8196;49.428;10.906;2022-12-26T01:16:02;4.13;;;3.77;;
16179;SDS011;8196;49.428;10.906;2022-12-26T01:18:29;4.65;;;4.10;;
16179;SDS011;8196;49.428;10.906;2022-12-26T01:21:00;4.90;;;4.20;;
16179;SDS011;8196;49.428;10.906;2022-12-26T01:23:28;5.82;;;4.50;;
16179;SDS011;8196;49.428;10.906;2022-12-26T01:25:55;5.00;;;4.35;;
16179;SDS011;8196;49.428;10.906;2022-12-26T01:28:42;6.43;;;4.45;;
16179;SDS011;8196;49.428;10.906;2022-12-26T01:31:09;6.27;;;4.23;;
16179;SDS011;8196;49.428;10.906;2022-12-26T01:33:36;5.32;;;4.70;;
16179;SDS011;8196;49.428;10.906;2022-12-26T01:36:03;4.93;;;4.25;;
16179;SDS011;8196;49.428;10.906;2022-12-26T01:38:30;4.30;;;3.80;;
16179;SDS011;8196;49.428;10.906;2022-12-26T01:40:57;4.65;;;4.05;;
16179;SDS011;8196;49.428;10.906;2022-12-26T01:43:50;5.18;;;4.18;;
16179;SDS011;8196;49.428;10.906;2022-12-26T01:46:19;4.03;;;3.63;;
16179;SDS011;8196;49.428;10.906;2022-12-26T01:48:47;4.10;;;3.70;;
16179;SDS011;8196;49.428;10.906;2022-12-26T01:51:14;4.35;;;3.80;;
16179;SDS011;8196;49.428;10.906;2022-12-26T01:53:44;4.22;;;3.83;;
16179;SDS011;8196;49.428;10.906;2022-12-26T01:56:14;4.40;;;4.00;;
16179;SDS011;8196;49.428;10.906;2022-12-26T01:58:43;4.57;;;4.10;;
16179;SDS011;8196;49.428;10.906;2022-12-26T02:01:13;4.28;;;3.88;;
16179;SDS011;8196;49.428;10.906;2022-12-26T02:03:41;4.28;;;3.60;;
16179;SDS011;8196;49.428;10.906;2022-12-26T02:06:29;4.50;;;3.53;;
16179;SDS011;8196;49.428;10.906;2022-12-26T02:08:56;3.88;;;3.33;;
16179;SDS011;8196;49.428;10.906;2022-12-26T02:11:25;3.92;;;3.20;;
16179;SDS011;8196;49.428;10.906;2022-12-26T02:13:53;4.22;;;2.95;;
16179;SDS011;8196;49.428;10.906;2022-12-26T02:16:20;3.85;;;3.08;;
16179;SDS011;8196;49.428;10.906;2022-12-26T02:18:48;3.80;;;3.25;;
16179;SDS011;8196;49.428;10.906;2022-12-26T02:29:16;4.03;;;3.63;;
16179;SDS011;8196;49.428;10.906;2022-12-26T02:45:04;4.55;;;3.60;;
16179;SDS011;8196;49.428;10.906;2022-12-26T02:47:56;4.25;;;3.85;;
16179;SDS011;8196;49.428;10.906;2022-12-26T02:50:35;4.65;;;3.78;;
16179;SDS011;8196;49.428;10.906;2022-12-26T02:53:28;4.85;;;3.97;;
16179;SDS011;8196;49.428;10.906;2022-12-26T02:56:20;4.80;;;3.75;;
16179;SDS011;8196;49.428;10.906;2022-12-26T02:59:14;4.32;;;3.70;;
16179;SDS011;8196;49.428;10.906;2022-12-26T03:02:30;4.30;;;3.90;;
16179;SDS011;8196;49.428;10.906;2022-12-26T03:05:21;4.90;;;4.18;;
16179;SDS011;8196;49.428;10.906;2022-12-26T03:08:11;4.10;;;3.70;;
16179;SDS011;8196;49.428;10.906;2022-12-26T03:11:01;4.25;;;3.85;;
16179;SDS011;8196;49.428;10.906;2022-12-26T03:13:49;4.10;;;3.70;;
16179;SDS011;8196;49.428;10.906;2022-12-26T03:16:16;4.13;;;3.72;;
16179;SDS011;8196;49.428;10.906;2022-12-26T03:19:05;4.10;;;3.72;;
16179;SDS011;8196;49.428;10.906;2022-12-26T03:21:34;4.10;;;3.70;;
16179;SDS011;8196;49.428;10.906;2022-12-26T03:24:02;3.85;;;3.53;;
16179;SDS011;8196;49.428;10.906;2022-12-26T03:26:31;4.70;;;3.90;;
16179;SDS011;8196;49.428;10.906;2022-12-26T03:29:07;4.10;;;3.70;;
16179;SDS011;8196;49.428;10.906;2022-12-26T03:31:55;4.22;;;3.83;;
16179;SDS011;8196;49.428;10.906;2022-12-26T03:34:22;4.30;;;3.90;;
16179;SDS011;8196;49.428;10.906;2022-12-26T03:48:06;3.95;;;3.65;;
16179;SDS011;8196;49.428;10.906;2022-12-26T03:51:03;5.25;;;4.10;;
16179;SDS011;8196;49.428;10.906;2022-12-26T03:54:04;5.63;;;4.03;;
16179;SDS011;8196;49.428;10.906;2022-12-26T03:56:54;4.47;;;3.80;;
16179;SDS011;8196;49.428;10.906;2022-12-26T03:59:45;4.85;;;3.97;;
16179;SDS011;8196;49.428;10.906;2022-12-26T04:02:33;4.22;;;3.83;;
16179;SDS011;8196;49.428;10.906;2022-12-26T04:05:21;4.13;;;3.83;;
16179;SDS011;8196;49.428;10.906;2022-12-26T04:08:12;4.47;;;3.70;;
16179;SDS011;8196;49.428;10.906;2022-12-26T04:11:00;5.70;;;4.75;;
16179;SDS011;8196;49.428;10.906;2022-12-26T04:13:57;4.80;;;3.70;;
16179;SDS011;8196;49.428;10.906;2022-12-26T04:19:47;4.80;;;3.85;;
16179;SDS011;8196;49.428;10.906;2022-12-26T04:22:26;4.55;;;4.13;;
16179;SDS011;8196;49.428;10.906;2022-12-26T04:25:15;4.30;;;3.80;;
16179;SDS011;8196;49.428;10.906;2022-12-26T04:28:16;5.00;;;3.80;;
16179;SDS011;8196;49.428;10.906;2022-12-26T04:31:08;3.72;;;3.38;;
16179;SDS011;8196;49.428;10.906;2022-12-26T04:34:00;5.57;;;3.53;;
16179;SDS011;8196;49.428;10.906;2022-12-26T04:36:49;4.13;;;3.72;;
16179;SDS011;8196;49.428;10.906;2022-12-26T04:39:38;5.57;;;3.37;;
16179;SDS011;8196;49.428;10.906;2022-12-26T04:42:26;3.95;;;3.58;;
16179;SDS011;8196;49.428;10.906;2022-12-26T04:45:13;4.72;;;3.20;;
16179;SDS011;8196;49.428;10.906;2022-12-26T04:47:40;4.20;;;3.65;;
16179;SDS011;8196;49.428;10.906;2022-12-26T04:50:27;3.88;;;3.42;;
16179;SDS011;8196;49.428;10.906;2022-12-26T04:52:54;3.75;;;3.35;;
16179;SDS011;8196;49.428;10.906;2022-12-26T04:55:26;3.67;;;3.10;;
16179;SDS011;8196;49.428;10.906;2022-12-26T04:57:54;3.65;;;3.08;;
16179;SDS011;8196;49.428;10.906;2022-12-26T05:00:22;3.90;;;3.15;;
16179;SDS011;8196;49.428;10.906;2022-12-26T05:02:50;3.80;;;2.87;;
16179;SDS011;8196;49.428;10.906;2022-12-26T05:05:45;10.60;;;6.82;;
16179;SDS011;8196;49.428;10.906;2022-12-26T05:08:36;8.30;;;5.45;;
16179;SDS011;8196;49.428;10.906;2022-12-26T05:11:24;4.28;;;3.63;;
16179;SDS011;8196;49.428;10.906;2022-12-26T05:13:52;3.20;;;2.90;;
16179;SDS011;8196;49.428;10.906;2022-12-26T05:16:19;4.05;;;2.88;;
16179;SDS011;8196;49.428;10.906;2022-12-26T05:19:08;3.47;;;3.08;;
16179;SDS011;8196;49.428;10.906;2022-12-26T05:21:56;3.90;;;3.00;;
16179;SDS011;8196;49.428;10.906;2022-12-26T05:24:44;3.10;;;2.80;;
16179;SDS011;8196;49.428;10.906;2022-12-26T05:27:33;4.05;;;2.78;;
16179;SDS011;8196;49.428;10.906;2022-12-26T05:30:21;4.28;;;3.85;;
16179;SDS011;8196;49.428;10.906;2022-12-26T05:32:48;4.80;;;4.40;;
16179;SDS011;8196;49.428;10.906;2022-12-26T05:35:35;4.57;;;4.18;;
16179;SDS011;8196;49.428;10.906;2022-12-26T05:38:03;4.03;;;3.35;;
16179;SDS011;8196;49.428;10.906;2022-12-26T05:40:30;3.50;;;2.83;;
16179;SDS011;8196;49.428;10.906;2022-12-26T05:42:57;4.25;;;2.72;;
16179;SDS011;8196;49.428;10.906;2022-12-26T05:45:24;3.42;;;2.80;;
16179;SDS011;8196;49.428;10.906;2022-12-26T05:47:59;4.15;;;2.70;;
16179;SDS011;8196;49.428;10.906;2022-12-26T05:50:27;4.30;;;3.10;;
16179;SDS011;8196;49.428;10.906;2022-12-26T05:52:55;4.00;;;3.08;;
16179;SDS011;8196;49.428;10.906;2022-12-26T05:55:23;2.90;;;2.37;;
16179;SDS011;8196;49.428;10.906;2022-12-26T05:57:50;3.03;;;2.60;;
16179;SDS011;8196;49.428;10.906;2022-12-26T06:00:17;2.87;;;2.60;;
16179;SDS011;8196;49.428;10.906;2022-12-26T06:02:45;3.28;;;2.65;;
16179;SDS011;8196;49.428;10.906;2022-12-26T06:05:12;3.15;;;2.20;;
16179;SDS011;8196;49.428;10.906;2022-12-26T06:07:39;3.15;;;2.60;;
16179;SDS011;8196;49.428;10.906;2022-12-26T06:10:06;3.33;;;2.50;;
16179;SDS011;8196;49.428;10.906;2022-12-26T06:12:34;3.70;;;2.55;;
16179;SDS011;8196;49.428;10.906;2022-12-26T06:15:01;2.55;;;2.35;;
16179;SDS011;8196;49.428;10.906;2022-12-26T06:17:28;2.88;;;2.20;;
16179;SDS011;8196;49.428;10.906;2022-12-26T06:19:55;2.80;;;2.25;;
16179;SDS011;8196;49.428;10.906;2022-12-26T06:22:22;3.65;;;2.45;;
16179;SDS011;8196;49.428;10.906;2022-12-26T06:24:49;2.85;;;2.50;;
16179;SDS011;8196;49.428;10.906;2022-12-26T06:27:16;2.90;;;2.40;;
16179;SDS011;8196;49.428;10.906;2022-12-26T06:29:44;2.55;;;2.30;;
16179;SDS011;8196;49.428;10.906;2022-12-26T06:32:11;3.33;;;2.53;;
16179;SDS011;8196;49.428;10.906;2022-12-26T06:34:38;3.90;;;2.10;;
16179;SDS011;8196;49.428;10.906;2022-12-26T06:37:05;2.95;;;2.65;;
16179;SDS011;8196;49.428;10.906;2022-12-26T06:39:32;2.47;;;2.28;;
16179;SDS011;8196;49.428;10.906;2022-12-26T06:41:59;3.53;;;2.92;;
16179;SDS011;8196;49.428;10.906;2022-12-26T06:44:26;3.15;;;2.58;;
16179;SDS011;8196;49.428;10.906;2022-12-26T06:46:53;2.78;;;2.35;;
16179;SDS011;8196;49.428;10.906;2022-12-26T06:49:21;4.68;;;2.40;;
16179;SDS011;8196;49.428;10.906;2022-12-26T06:51:57;3.55;;;2.65;;
16179;SDS011;8196;49.428;10.906;2022-12-26T06:54:25;3.05;;;2.60;;
16179;SDS011;8196;49.428;10.906;2022-12-26T06:56:52;3.17;;;2.40;;
16179;SDS011;8196;49.428;10.906;2022-12-26T06:59:19;2.75;;;2.40;;
16179;SDS011;8196;49.428;10.906;2022-12-26T07:01:46;2.60;;;2.10;;
16179;SDS011;8196;49.428;10.906;2022-12-26T07:04:14;2.50;;;2.28;;
16179;SDS011;8196;49.428;10.906;2022-12-26T07:06:41;3.78;;;2.30;;
16179;SDS011;8196;49.428;10.906;2022-12-26T07:09:09;2.70;;;2.28;;
16179;SDS011;8196;49.428;10.906;2022-12-26T07:11:40;2.63;;;2.40;;
16179;SDS011;8196;49.428;10.906;2022-12-26T07:14:08;3.05;;;2.75;;
16179;SDS011;8196;49.428;10.906;2022-12-26T07:16:36;3.03;;;2.72;;
16179;SDS011;8196;49.428;10.906;2022-12-26T07:19:03;3.07;;;2.27;;
16179;SDS011;8196;49.428;10.906;2022-12-26T07:21:31;2.73;;;2.20;;
16179;SDS011;8196;49.428;10.906;2022-12-26T07:24:05;3.03;;;2.40;;
16179;SDS011;8196;49.428;10.906;2022-12-26T07:26:34;4.43;;;2.72;;
16179;SDS011;8196;49.428;10.906;2022-12-26T07:29:01;2.90;;;2.63;;
16179;SDS011;8196;49.428;10.906;2022-12-26T07:31:28;2.90;;;2.60;;
16179;SDS011;8196;49.428;10.906;2022-12-26T07:33:55;3.00;;;2.70;;
16179;SDS011;8196;49.428;10.906;2022-12-26T07:36:22;3.43;;;2.90;;
16179;SDS011;8196;49.428;10.906;2022-12-26T07:38:50;3.47;;;3.08;;
16179;SDS011;8196;49.428;10.906;2022-12-26T07:41:18;3.22;;;2.80;;
16179;SDS011;8196;49.428;10.906;2022-12-26T07:44:05;3.70;;;3.17;;
16179;SDS011;8196;49.428;10.906;2022-12-26T07:46:32;3.08;;;2.78;;
16179;SDS011;8196;49.428;10.906;2022-12-26T07:49:00;3.00;;;2.70;;
16179;SDS011;8196;49.428;10.906;2022-12-26T07:51:27;3.20;;;2.80;;
16179;SDS011;8196;49.428;10.906;2022-12-26T07:53:54;3.80;;;2.80;;
16179;SDS011;8196;49.428;10.906;2022-12-26T07:56:22;4.38;;;3.10;;
16179;SDS011;8196;49.428;10.906;2022-12-26T07:58:49;3.80;;;3.03;;
16179;SDS011;8196;49.428;10.906;2022-12-26T08:01:17;3.00;;;2.65;;
16179;SDS011;8196;49.428;10.906;2022-12-26T08:03:46;3.10;;;2.80;;
16179;SDS011;8196;49.428;10.906;2022-12-26T08:06:14;3.08;;;2.78;;
16179;SDS011;8196;49.428;10.906;2022-12-26T08:08:41;3.50;;;3.20;;
16179;SDS011;8196;49.428;10.906;2022-12-26T08:11:17;4.15;;;3.40;;
16179;SDS011;8196;49.428;10.906;2022-12-26T08:13:44;4.32;;;3.60;;
16179;SDS011;8196;49.428;10.906;2022-12-26T08:16:12;4.00;;;3.30;;
16179;SDS011;8196;49.428;10.906;2022-12-26T08:18:40;4.18;;;2.90;;
16179;SDS011;8196;49.428;10.906;2022-12-26T08:21:07;3.55;;;3.10;;
16179;SDS011;8196;49.428;10.906;2022-12-26T08:23:35;4.40;;;3.20;;
16179;SDS011;8196;49.428;10.906;2022-12-26T08:26:04;4.33;;;3.60;;
16179;SDS011;8196;49.428;10.906;2022-12-26T08:28:31;4.72;;;3.42;;
16179;SDS011;8196;49.428;10.906;2022-12-26T08:30:58;4.32;;;3.63;;
16179;SDS011;8196;49.428;10.906;2022-12-26T08:33:26;5.07;;;3.65;;
16179;SDS011;8196;49.428;10.906;2022-12-26T08:35:53;4.65;;;3.83;;
16179;SDS011;8196;49.428;10.906;2022-12-26T08:38:20;3.50;;;3.20;;
16179;SDS011;8196;49.428;10.906;2022-12-26T08:40:54;3.60;;;3.10;;
16179;SDS011;8196;49.428;10.906;2022-12-26T08:43:22;3.58;;;3.17;;
16179;SDS011;8196;49.428;10.906;2022-12-26T08:46:09;3.88;;;3.03;;
16179;SDS011;8196;49.428;10.906;2022-12-26T08:48:38;3.35;;;3.05;;
16179;SDS011;8196;49.428;10.906;2022-12-26T08:51:06;3.93;;;3.20;;
16179;SDS011;8196;49.428;10.906;2022-12-26T08:53:34;4.47;;;3.35;;
16179;SDS011;8196;49.428;10.906;2022-12-26T08:56:03;3.75;;;3.30;;
16179;SDS011;8196;49.428;10.906;2022-12-26T08:58:31;5.63;;;3.47;;
16179;SDS011;8196;49.428;10.906;2022-12-26T09:01:06;5.20;;;3.97;;
16179;SDS011;8196;49.428;10.906;2022-12-26T09:03:34;4.00;;;3.63;;
16179;SDS011;8196;49.428;10.906;2022-12-26T09:06:01;4.40;;;3.60;;
16179;SDS011;8196;49.428;10.906;2022-12-26T09:08:32;4.03;;;3.42;;
16179;SDS011;8196;49.428;10.906;2022-12-26T09:11:02;5.07;;;3.63;;
16179;SDS011;8196;49.428;10.906;2022-12-26T09:13:30;3.50;;;3.10;;
16179;SDS011;8196;49.428;10.906;2022-12-26T09:16:06;4.22;;;3.17;;
16179;SDS011;8196;49.428;10.906;2022-12-26T09:18:34;3.63;;;3.05;;
16179;SDS011;8196;49.428;10.906;2022-12-26T09:21:01;3.95;;;3.20;;
16179;SDS011;8196;49.428;10.906;2022-12-26T09:23:29;4.10;;;3.38;;
16179;SDS011;8196;49.428;10.906;2022-12-26T09:26:02;4.93;;;3.70;;
16179;SDS011;8196;49.428;10.906;2022-12-26T09:28:29;3.42;;;3.05;;
16179;SDS011;8196;49.428;10.906;2022-12-26T09:31:00;3.78;;;3.13;;
16179;SDS011;8196;49.428;10.906;2022-12-26T09:33:28;8.70;;;6.32;;
16179;SDS011;8196;49.428;10.906;2022-12-26T09:35:55;4.25;;;3.85;;
16179;SDS011;8196;49.428;10.906;2022-12-26T09:38:31;4.77;;;3.50;;
16179;SDS011;8196;49.428;10.906;2022-12-26T09:41:05;5.20;;;4.10;;
16179;SDS011;8196;49.428;10.906;2022-12-26T09:49:10;4.63;;;4.20;;
16179;SDS011;8196;49.428;10.906;2022-12-26T09:51:39;4.10;;;3.42;;
16179;SDS011;8196;49.428;10.906;2022-12-26T09:54:13;3.40;;;3.10;;
16179;SDS011;8196;49.428;10.906;2022-12-26T09:56:40;3.90;;;3.30;;
16179;SDS011;8196;49.428;10.906;2022-12-26T09:59:31;4.90;;;4.40;;
16179;SDS011;8196;49.428;10.906;2022-12-26T10:02:00;4.57;;;4.18;;
16179;SDS011;8196;49.428;10.906;2022-12-26T10:04:27;3.88;;;3.47;;
16179;SDS011;8196;49.428;10.906;2022-12-26T10:07:16;5.63;;;4.32;;
16179;SDS011;8196;49.428;10.906;2022-12-26T10:12:17;5.07;;;4.05;;
16179;SDS011;8196;49.428;10.906;2022-12-26T10:14:52;4.80;;;4.30;;
16179;SDS011;8196;49.428;10.906;2022-12-26T10:19:53;4.82;;;4.28;;
16179;SDS011;8196;49.428;10.906;2022-12-26T10:24:49;6.50;;;4.60;;
16179;SDS011;8196;49.428;10.906;2022-12-26T10:27:17;5.03;;;3.95;;
16179;SDS011;8196;49.428;10.906;2022-12-26T10:29:51;5.28;;;4.40;;
16179;SDS011;8196;49.428;10.906;2022-12-26T10:32:21;5.78;;;4.30;;
16179;SDS011;8196;49.428;10.906;2022-12-26T10:34:53;5.97;;;4.60;;
16179;SDS011;8196;49.428;10.906;2022-12-26T10:37:26;5.28;;;4.57;;
16179;SDS011;8196;49.428;10.906;2022-12-26T10:39:58;5.85;;;4.55;;
16179;SDS011;8196;49.428;10.906;2022-12-26T10:42:28;5.93;;;4.53;;
16179;SDS011;8196;49.428;10.906;2022-12-26T10:44:57;5.78;;;4.30;;
16179;SDS011;8196;49.428;10.906;2022-12-26T10:47:32;6.20;;;5.03;;
16179;SDS011;8196;49.428;10.906;2022-12-26T10:50:02;4.68;;;4.28;;
16179;SDS011;8196;49.428;10.906;2022-12-26T10:52:31;4.50;;;4.10;;
16179;SDS011;8196;49.428;10.906;2022-12-26T10:55:00;5.72;;;4.43;;
16179;SDS011;8196;49.428;10.906;2022-12-26T10:57:47;4.32;;;3.92;;
16179;SDS011;8196;49.428;10.906;2022-12-26T11:00:19;4.57;;;3.80;;
16179;SDS011;8196;49.428;10.906;2022-12-26T11:05:35;0.55;;;0.55;;
16179;SDS011;8196;49.428;10.906;2022-12-26T11:08:25;0.30;;;0.30;;
16179;SDS011;8196;49.428;10.906;2022-12-26T11:11:02;0.55;;;0.55;;
16179;SDS011;8196;49.428;10.906;2022-12-26T11:13:31;0.38;;;0.38;;
16179;SDS011;8196;49.428;10.906;2022-12-26T11:15:59;0.80;;;0.80;;
16179;SDS011;8196;49.428;10.906;2022-12-26T11:23:45;0.20;;;0.20;;
16179;SDS011;8196;49.428;10.906;2022-12-26T11:26:22;1.00;;;0.50;;
16179;SDS011;8196;49.428;10.906;2022-12-26T11:29:03;0.30;;;0.30;;
16179;SDS011;8196;49.428;10.906;2022-12-26T11:31:31;0.35;;;0.35;;
16179;SDS011;8196;49.428;10.906;2022-12-26T11:33:58;0.20;;;0.20;;
16179;SDS011;8196;49.428;10.906;2022-12-26T11:36:27;0.30;;;0.30;;
16179;SDS011;8196;49.428;10.906;2022-12-26T11:38:55;0.20;;;0.20;;
16179;SDS011;8196;49.428;10.906;2022-12-26T11:44:01;0.20;;;0.20;;
16179;SDS011;8196;49.428;10.906;2022-12-26T11:46:33;0.60;;;0.60;;
16179;SDS011;8196;49.428;10.906;2022-12-26T11:49:01;1.50;;;1.10;;
16179;SDS011;8196;49.428;10.906;2022-12-26T11:51:31;0.17;;;0.17;;
16179;SDS011;8196;49.428;10.906;2022-12-26T11:54:33;0.60;;;0.60;;
16179;SDS011;8196;49.428;10.906;2022-12-26T11:56:46;0.33;;;0.33;;
16179;SDS011;8196;49.428;10.906;2022-12-26T11:59:18;0.77;;;0.77;;
16179;SDS011;8196;49.428;10.906;2022-12-26T12:01:45;0.47;;;0.47;;
16179;SDS011;8196;49.428;10.906;2022-12-26T12:04:12;0.65;;;0.65;;
16179;SDS011;8196;49.428;10.906;2022-12-26T12:11:45;0.60;;;0.60;;
16179;SDS011;8196;49.428;10.906;2022-12-26T12:24:30;0.38;;;0.38;;
16179;SDS011;8196;49.428;10.906;2022-12-26T12:27:06;0.20;;;0.20;;
16179;SDS011;8196;49.428;10.906;2022-12-26T12:29:38;3.30;;;2.10;;
16179;SDS011;8196;49.428;10.906;2022-12-26T12:37:57;0.70;;;0.70;;
16179;SDS011;8196;49.428;10.906;2022-12-26T12:50:31;1.20;;;0.80;;
16179;SDS011;8196;49.428;10.906;2022-12-26T12:54:09;0.40;;;0.40;;
16179;SDS011;8196;49.428;10.906;2022-12-26T12:58:20;0.30;;;0.25;;
16179;SDS011;8196;49.428;10.906;2022-12-26T13:00:52;0.60;;;0.52;;
16179;SDS011;8196;49.428;10.906;2022-12-26T13:06:09;0.50;;;0.50;;
16179;SDS011;8196;49.428;10.906;2022-12-26T13:08:39;0.63;;;0.63;;
16179;SDS011;8196;49.428;10.906;2022-12-26T13:11:09;1.20;;;0.75;;
16179;SDS011;8196;49.428;10.906;2022-12-26T13:13:41;0.10;;;0.10;;
16179;SDS011;8196;49.428;10.906;2022-12-26T13:16:23;3.22;;;2.83;;
16179;SDS011;8196;49.428;10.906;2022-12-26T13:18:52;1.70;;;1.58;;
16179;SDS011;8196;49.428;10.906;2022-12-26T13:21:21;1.80;;;1.70;;
16179;SDS011;8196;49.428;10.906;2022-12-26T13:23:49;2.15;;;1.95;;
16179;SDS011;8196;49.428;10.906;2022-12-26T13:26:40;1.40;;;1.30;;
16179;SDS011;8196;49.428;10.906;2022-12-26T13:31:35;2.23;;;1.60;;
16179;SDS011;8196;49.428;10.906;2022-12-26T13:34:03;1.80;;;1.60;;
16179;SDS011;8196;49.428;10.906;2022-12-26T13:36:38;2.08;;;1.50;;
16179;SDS011;8196;49.428;10.906;2022-12-26T13:44:46;1.67;;;1.50;;
16179;SDS011;8196;49.428;10.906;2022-12-26T13:47:35;1.83;;;1.60;;
16179;SDS011;8196;49.428;10.906;2022-12-26T13:52:50;3.17;;;1.75;;
16179;SDS011;8196;49.428;10.906;2022-12-26T13:55:26;2.00;;;1.80;;
16179;SDS011;8196;49.428;10.906;2022-12-26T13:58:19;2.30;;;2.10;;
16179;SDS011;8196;49.428;10.906;2022-12-26T14:00:43;2.40;;;2.20;;
16179;SDS011;8196;49.428;10.906;2022-12-26T14:08:45;2.30;;;2.10;;
16179;SDS011;8196;49.428;10.906;2022-12-26T14:16:38;2.50;;;2.20;;
16179;SDS011;8196;49.428;10.906;2022-12-26T14:24:43;2.05;;;1.85;;
16179;SDS011;8196;49.428;10.906;2022-12-26T14:27:21;2.60;;;1.97;;
16179;SDS011;8196;49.428;10.906;2022-12-26T14:29:55;2.37;;;1.97;;
16179;SDS011;8196;49.428;10.906;2022-12-26T14:40:32;1.90;;;1.70;;
16179;SDS011;8196;49.428;10.906;2022-12-26T14:45:44;1.90;;;1.80;;
16179;SDS011;8196;49.428;10.906;2022-12-26T14:50:49;2.05;;;1.88;;
16179;SDS011;8196;49.428;10.906;2022-12-26T15:00:50;3.25;;;2.20;;
16179;SDS011;8196;49.428;10.906;2022-12-26T15:06:10;2.03;;;1.83;;
16179;SDS011;8196;49.428;10.906;2022-12-26T15:17:04;2.10;;;1.90;;
16179;SDS011;8196;49.428;10.906;2022-12-26T15:27:54;3.20;;;2.70;;
16179;SDS011;8196;49.428;10.906;2022-12-26T15:30:32;2.85;;;2.17;;
16179;SDS011;8196;49.428;10.906;2022-12-26T15:33:08;3.60;;;2.80;;
16179;SDS011;8196;49.428;10.906;2022-12-26T15:35:43;2.42;;;2.00;;
16179;SDS011;8196;49.428;10.906;2022-12-26T15:38:35;2.77;;;2.37;;
16179;SDS011;8196;49.428;10.906;2022-12-26T15:46:29;9.70;;;8.37;;
16179;SDS011;8196;49.428;10.906;2022-12-26T15:56:43;3.30;;;2.53;;
16179;SDS011;8196;49.428;10.906;2022-12-26T16:01:57;2.92;;;2.47;;
16179;SDS011;8196;49.428;10.906;2022-12-26T16:04:27;2.50;;;2.30;;
16179;SDS011;8196;49.428;10.906;2022-12-26T16:09:44;3.20;;;2.90;;
16179;SDS011;8196;49.428;10.906;2022-12-26T16:12:18;3.35;;;3.05;;
16179;SDS011;8196;49.428;10.906;2022-12-26T16:14:46;3.35;;;3.05;;
16179;SDS011;8196;49.428;10.906;2022-12-26T16:19:41;6.78;;;5.65;;
16179;SDS011;8196;49.428;10.906;2022-12-26T16:22:13;7.10;;;5.85;;
16179;SDS011;8196;49.428;10.906;2022-12-26T16:25:01;6.10;;;4.72;;
16179;SDS011;8196;49.428;10.906;2022-12-26T16:27:29;5.63;;;4.85;;
16179;SDS011;8196;49.428;10.906;2022-12-26T16:29:57;4.93;;;4.43;;
16179;SDS011;8196;49.428;10.906;2022-12-26T16:32:33;4.68;;;4.18;;
16179;SDS011;8196;49.428;10.906;2022-12-26T16:35:01;4.20;;;3.75;;
16179;SDS011;8196;49.428;10.906;2022-12-26T16:37:28;4.55;;;4.15;;
16179;SDS011;8196;49.428;10.906;2022-12-26T16:40:04;3.20;;;2.90;;
16179;SDS011;8196;49.428;10.906;2022-12-26T16:42:32;3.88;;;3.55;;
16179;SDS011;8196;49.428;10.906;2022-12-26T16:44:59;4.73;;;3.83;;
16179;SDS011;8196;49.428;10.906;2022-12-26T16:47:27;3.70;;;3.33;;
16179;SDS011;8196;49.428;10.906;2022-12-26T16:49:56;3.17;;;2.88;;
16179;SDS011;8196;49.428;10.906;2022-12-26T16:52:39;3.10;;;2.80;;
16179;SDS011;8196;49.428;10.906;2022-12-26T16:58:00;3.40;;;3.10;;
16179;SDS011;8196;49.428;10.906;2022-12-26T17:00:28;3.80;;;2.90;;
16179;SDS011;8196;49.428;10.906;2022-12-26T17:02:56;3.97;;;3.58;;
16179;SDS011;8196;49.428;10.906;2022-12-26T17:05:26;2.60;;;2.40;;
16179;SDS011;8196;49.428;10.906;2022-12-26T17:07:55;2.60;;;2.40;;
16179;SDS011;8196;49.428;10.906;2022-12-26T17:10:24;0.60;;;0.60;;
16179;SDS011;8196;49.428;10.906;2022-12-26T17:12:52;0.20;;;0.20;;
16179;SDS011;8196;49.428;10.906;2022-12-26T17:15:22;0.20;;;0.20;;
16179;SDS011;8196;49.428;10.906;2022-12-26T17:17:49;0.40;;;0.40;;
16179;SDS011;8196;49.428;10.906;2022-12-26T17:22:52;0.47;;;0.47;;
16179;SDS011;8196;49.428;10.906;2022-12-26T17:25:21;4.00;;;0.50;;
16179;SDS011;8196;49.428;10.906;2022-12-26T17:30:38;0.47;;;0.47;;
16179;SDS011;8196;49.428;10.906;2022-12-26T17:35:35;0.33;;;0.33;;
16179;SDS011;8196;49.428;10.906;2022-12-26T17:38:23;0.38;;;0.38;;
16179;SDS011;8196;49.428;10.906;2022-12-26T17:40:51;0.45;;;0.45;;
16179;SDS011;8196;49.428;10.906;2022-12-26T17:43:24;0.25;;;0.25;;
16179;SDS011;8196;49.428;10.906;2022-12-26T17:45:55;0.70;;;0.70;;
16179;SDS011;8196;49.428;10.906;2022-12-26T17:48:22;0.32;;;0.32;;
16179;SDS011;8196;49.428;10.906;2022-12-26T17:50:53;0.40;;;0.40;;
16179;SDS011;8196;49.428;10.906;2022-12-26T17:55:48;0.20;;;0.20;;
16179;SDS011;8196;49.428;10.906;2022-12-26T17:58:15;0.30;;;0.30;;
16179;SDS011;8196;49.428;10.906;2022-12-26T18:00:43;0.60;;;0.60;;
16179;SDS011;8196;49.428;10.906;2022-12-26T18:03:10;0.30;;;0.30;;
16179;SDS011;8196;49.428;10.906;2022-12-26T18:05:38;0.20;;;0.20;;
16179;SDS011;8196;49.428;10.906;2022-12-26T18:08:05;0.30;;;0.30;;
16179;SDS011;8196;49.428;10.906;2022-12-26T18:10:34;0.28;;;0.28;;
16179;SDS011;8196;49.428;10.906;2022-12-26T18:13:01;0.35;;;0.35;;
16179;SDS011;8196;49.428;10.906;2022-12-26T18:15:28;0.20;;;0.20;;
16179;SDS011;8196;49.428;10.906;2022-12-26T18:17:56;3.63;;;3.25;;
16179;SDS011;8196;49.428;10.906;2022-12-26T18:20:25;4.25;;;3.10;;
16179;SDS011;8196;49.428;10.906;2022-12-26T18:22:53;4.25;;;3.85;;
16179;SDS011;8196;49.428;10.906;2022-12-26T18:25:21;4.00;;;3.60;;
16179;SDS011;8196;49.428;10.906;2022-12-26T18:27:49;3.45;;;3.15;;
16179;SDS011;8196;49.428;10.906;2022-12-26T18:30:17;3.03;;;2.72;;
16179;SDS011;8196;49.428;10.906;2022-12-26T18:32:45;3.30;;;3.00;;
16179;SDS011;8196;49.428;10.906;2022-12-26T18:35:13;2.50;;;2.30;;
16179;SDS011;8196;49.428;10.906;2022-12-26T18:37:41;2.72;;;2.53;;